sensor_id;sensor_type;location;lat;lon;timestamp;P1;durP1;ratioP1;P2;durP2;ratioP2
16969;SDS011;8601;48.718;8.992;2023-07-29T00:01:10;5.57;;;2.30;;
16969;SDS011;8601;48.718;8.992;2023-07-29T00:03:37;2.40;;;2.20;;
16969;SDS011;8601;48.718;8.992;2023-07-29T00:06:04;2.80;;;2.00;;
16969;SDS011;8601;48.718;8.992;2023-07-29T00:08:30;3.50;;;2.17;;
16969;SDS011;8601;48.718;8.992;2023-07-29T00:10:57;2.40;;;1.90;;
16969;SDS011;8601;48.718;8.992;2023-07-29T00:13:26;2.23;;;2.00;;
16969;SDS011;8601;48.718;8.992;2023-07-29T00:15:53;2.87;;;1.80;;
16969;SDS011;8601;48.718;8.992;2023-07-29T00:18:20;2.90;;;2.00;;
16969;SDS011;8601;48.718;8.992;2023-07-29T00:20:48;2.83;;;2.10;;
16969;SDS011;8601;48.718;8.992;2023-07-29T00:23:16;2.30;;;2.10;;
16969;SDS011;8601;48.718;8.992;2023-07-29T00:25:45;2.47;;;1.93;;
16969;SDS011;8601;48.718;8.992;2023-07-29T00:28:11;3.20;;;2.20;;
16969;SDS011;8601;48.718;8.992;2023-07-29T00:30:40;4.53;;;2.37;;
16969;SDS011;8601;48.718;8.992;2023-07-29T00:33:07;5.33;;;2.33;;
16969;SDS011;8601;48.718;8.992;2023-07-29T00:35:34;4.07;;;2.40;;
16969;SDS011;8601;48.718;8.992;2023-07-29T00:38:01;7.03;;;2.50;;
16969;SDS011;8601;48.718;8.992;2023-07-29T00:40:28;2.03;;;1.93;;
16969;SDS011;8601;48.718;8.992;2023-07-29T00:42:55;4.37;;;1.90;;
16969;SDS011;8601;48.718;8.992;2023-07-29T00:45:23;3.50;;;2.00;;
16969;SDS011;8601;48.718;8.992;2023-07-29T00:47:53;4.40;;;2.20;;
16969;SDS011;8601;48.718;8.992;2023-07-29T00:50:20;5.07;;;1.90;;
16969;SDS011;8601;48.718;8.992;2023-07-29T00:52:48;3.90;;;2.03;;
16969;SDS011;8601;48.718;8.992;2023-07-29T00:55:15;2.23;;;2.03;;
16969;SDS011;8601;48.718;8.992;2023-07-29T00:57:43;4.67;;;2.27;;
16969;SDS011;8601;48.718;8.992;2023-07-29T01:00:13;2.10;;;2.00;;
16969;SDS011;8601;48.718;8.992;2023-07-29T01:02:41;2.90;;;2.20;;
16969;SDS011;8601;48.718;8.992;2023-07-29T01:05:10;2.80;;;2.17;;
16969;SDS011;8601;48.718;8.992;2023-07-29T01:07:40;3.20;;;2.00;;
16969;SDS011;8601;48.718;8.992;2023-07-29T01:10:16;2.50;;;1.90;;
16969;SDS011;8601;48.718;8.992;2023-07-29T01:12:54;2.20;;;2.00;;
16969;SDS011;8601;48.718;8.992;2023-07-29T01:15:26;4.13;;;2.50;;
16969;SDS011;8601;48.718;8.992;2023-07-29T01:17:59;2.47;;;2.27;;
16969;SDS011;8601;48.718;8.992;2023-07-29T01:20:33;3.43;;;2.20;;
16969;SDS011;8601;48.718;8.992;2023-07-29T01:23:03;2.10;;;1.90;;
16969;SDS011;8601;48.718;8.992;2023-07-29T01:25:32;2.60;;;1.83;;
16969;SDS011;8601;48.718;8.992;2023-07-29T01:27:58;4.40;;;2.10;;
16969;SDS011;8601;48.718;8.992;2023-07-29T01:30:26;4.50;;;2.30;;
16969;SDS011;8601;48.718;8.992;2023-07-29T01:32:58;2.50;;;2.30;;
16969;SDS011;8601;48.718;8.992;2023-07-29T01:35:31;4.90;;;2.47;;
16969;SDS011;8601;48.718;8.992;2023-07-29T01:38:03;4.17;;;2.00;;
16969;SDS011;8601;48.718;8.992;2023-07-29T01:40:36;3.90;;;2.10;;
16969;SDS011;8601;48.718;8.992;2023-07-29T01:43:03;3.37;;;2.00;;
16969;SDS011;8601;48.718;8.992;2023-07-29T01:45:32;2.50;;;1.93;;
16969;SDS011;8601;48.718;8.992;2023-07-29T01:48:03;1.93;;;1.83;;
16969;SDS011;8601;48.718;8.992;2023-07-29T01:50:30;2.20;;;2.00;;
16969;SDS011;8601;48.718;8.992;2023-07-29T01:52:58;4.70;;;2.30;;
16969;SDS011;8601;48.718;8.992;2023-07-29T01:55:25;3.77;;;2.20;;
16969;SDS011;8601;48.718;8.992;2023-07-29T01:57:54;2.53;;;2.20;;
16969;SDS011;8601;48.718;8.992;2023-07-29T02:00:21;3.73;;;2.10;;
16969;SDS011;8601;48.718;8.992;2023-07-29T02:02:48;4.00;;;2.30;;
16969;SDS011;8601;48.718;8.992;2023-07-29T02:05:15;3.53;;;2.17;;
16969;SDS011;8601;48.718;8.992;2023-07-29T02:07:43;3.93;;;2.43;;
16969;SDS011;8601;48.718;8.992;2023-07-29T02:10:10;3.70;;;2.30;;
16969;SDS011;8601;48.718;8.992;2023-07-29T02:12:37;5.13;;;2.23;;
16969;SDS011;8601;48.718;8.992;2023-07-29T02:15:06;3.17;;;2.40;;
16969;SDS011;8601;48.718;8.992;2023-07-29T02:17:34;7.93;;;2.10;;
16969;SDS011;8601;48.718;8.992;2023-07-29T02:20:02;4.63;;;2.40;;
16969;SDS011;8601;48.718;8.992;2023-07-29T02:22:29;2.50;;;2.20;;
16969;SDS011;8601;48.718;8.992;2023-07-29T02:24:56;3.23;;;2.13;;
16969;SDS011;8601;48.718;8.992;2023-07-29T02:27:23;2.13;;;1.93;;
16969;SDS011;8601;48.718;8.992;2023-07-29T02:29:52;3.50;;;2.23;;
16969;SDS011;8601;48.718;8.992;2023-07-29T02:32:20;2.67;;;2.13;;
16969;SDS011;8601;48.718;8.992;2023-07-29T02:34:48;3.67;;;2.00;;
16969;SDS011;8601;48.718;8.992;2023-07-29T02:37:15;5.17;;;2.10;;
16969;SDS011;8601;48.718;8.992;2023-07-29T02:39:42;4.30;;;2.43;;
16969;SDS011;8601;48.718;8.992;2023-07-29T02:42:09;2.70;;;2.17;;
16969;SDS011;8601;48.718;8.992;2023-07-29T02:44:36;3.93;;;2.00;;
16969;SDS011;8601;48.718;8.992;2023-07-29T02:47:03;2.83;;;2.10;;
16969;SDS011;8601;48.718;8.992;2023-07-29T02:49:31;3.20;;;2.20;;
16969;SDS011;8601;48.718;8.992;2023-07-29T02:51:58;3.30;;;2.20;;
16969;SDS011;8601;48.718;8.992;2023-07-29T02:54:25;2.77;;;2.40;;
16969;SDS011;8601;48.718;8.992;2023-07-29T02:56:52;3.93;;;2.60;;
16969;SDS011;8601;48.718;8.992;2023-07-29T02:59:19;2.83;;;2.20;;
16969;SDS011;8601;48.718;8.992;2023-07-29T03:01:46;2.83;;;2.10;;
16969;SDS011;8601;48.718;8.992;2023-07-29T03:04:13;3.07;;;2.50;;
16969;SDS011;8601;48.718;8.992;2023-07-29T03:06:41;4.47;;;2.70;;
16969;SDS011;8601;48.718;8.992;2023-07-29T03:09:08;2.67;;;2.40;;
16969;SDS011;8601;48.718;8.992;2023-07-29T03:11:35;3.77;;;2.53;;
16969;SDS011;8601;48.718;8.992;2023-07-29T03:14:02;4.17;;;2.47;;
16969;SDS011;8601;48.718;8.992;2023-07-29T03:16:29;5.50;;;2.30;;
16969;SDS011;8601;48.718;8.992;2023-07-29T03:18:55;3.47;;;2.30;;
16969;SDS011;8601;48.718;8.992;2023-07-29T03:21:22;3.70;;;2.47;;
16969;SDS011;8601;48.718;8.992;2023-07-29T03:23:51;2.67;;;2.47;;
16969;SDS011;8601;48.718;8.992;2023-07-29T03:26:18;4.10;;;2.37;;
16969;SDS011;8601;48.718;8.992;2023-07-29T03:28:45;5.47;;;2.53;;
16969;SDS011;8601;48.718;8.992;2023-07-29T03:31:12;2.80;;;2.37;;
16969;SDS011;8601;48.718;8.992;2023-07-29T03:33:38;2.80;;;2.30;;
16969;SDS011;8601;48.718;8.992;2023-07-29T03:36:05;4.30;;;2.13;;
16969;SDS011;8601;48.718;8.992;2023-07-29T03:38:32;4.67;;;2.60;;
16969;SDS011;8601;48.718;8.992;2023-07-29T03:41:01;6.43;;;2.47;;
16969;SDS011;8601;48.718;8.992;2023-07-29T03:43:29;4.67;;;2.53;;
16969;SDS011;8601;48.718;8.992;2023-07-29T03:45:55;3.77;;;2.70;;
16969;SDS011;8601;48.718;8.992;2023-07-29T03:48:22;4.77;;;2.60;;
16969;SDS011;8601;48.718;8.992;2023-07-29T03:50:49;4.63;;;2.67;;
16969;SDS011;8601;48.718;8.992;2023-07-29T03:53:16;3.27;;;2.80;;
16969;SDS011;8601;48.718;8.992;2023-07-29T03:55:43;4.30;;;3.03;;
16969;SDS011;8601;48.718;8.992;2023-07-29T03:58:12;8.43;;;3.57;;
16969;SDS011;8601;48.718;8.992;2023-07-29T04:00:39;4.53;;;2.73;;
16969;SDS011;8601;48.718;8.992;2023-07-29T04:03:06;3.67;;;2.63;;
16969;SDS011;8601;48.718;8.992;2023-07-29T04:05:33;6.53;;;3.13;;
16969;SDS011;8601;48.718;8.992;2023-07-29T04:07:59;4.10;;;3.27;;
16969;SDS011;8601;48.718;8.992;2023-07-29T04:10:26;4.30;;;2.67;;
16969;SDS011;8601;48.718;8.992;2023-07-29T04:12:56;4.97;;;3.00;;
16969;SDS011;8601;48.718;8.992;2023-07-29T04:15:24;7.93;;;3.20;;
16969;SDS011;8601;48.718;8.992;2023-07-29T04:17:52;3.10;;;2.80;;
16969;SDS011;8601;48.718;8.992;2023-07-29T04:20:19;4.87;;;2.77;;
16969;SDS011;8601;48.718;8.992;2023-07-29T04:22:45;4.17;;;3.00;;
16969;SDS011;8601;48.718;8.992;2023-07-29T04:25:12;7.13;;;3.33;;
16969;SDS011;8601;48.718;8.992;2023-07-29T04:27:39;5.30;;;3.43;;
16969;SDS011;8601;48.718;8.992;2023-07-29T04:30:06;5.93;;;2.97;;
16969;SDS011;8601;48.718;8.992;2023-07-29T04:32:35;7.10;;;3.13;;
16969;SDS011;8601;48.718;8.992;2023-07-29T04:35:02;4.10;;;3.00;;
16969;SDS011;8601;48.718;8.992;2023-07-29T04:37:29;5.40;;;3.40;;
16969;SDS011;8601;48.718;8.992;2023-07-29T04:39:56;5.57;;;3.30;;
16969;SDS011;8601;48.718;8.992;2023-07-29T04:42:23;7.33;;;3.50;;
16969;SDS011;8601;48.718;8.992;2023-07-29T04:44:50;5.57;;;3.40;;
16969;SDS011;8601;48.718;8.992;2023-07-29T04:47:17;7.13;;;3.33;;
16969;SDS011;8601;48.718;8.992;2023-07-29T04:49:45;4.23;;;3.43;;
16969;SDS011;8601;48.718;8.992;2023-07-29T04:52:12;7.30;;;3.80;;
16969;SDS011;8601;48.718;8.992;2023-07-29T04:54:39;6.10;;;3.73;;
16969;SDS011;8601;48.718;8.992;2023-07-29T04:57:06;6.40;;;3.50;;
16969;SDS011;8601;48.718;8.992;2023-07-29T04:59:33;6.00;;;3.70;;
16969;SDS011;8601;48.718;8.992;2023-07-29T05:02:00;6.10;;;3.63;;
16969;SDS011;8601;48.718;8.992;2023-07-29T05:04:27;7.43;;;3.50;;
16969;SDS011;8601;48.718;8.992;2023-07-29T05:06:55;4.90;;;3.63;;
16969;SDS011;8601;48.718;8.992;2023-07-29T05:09:22;4.67;;;2.90;;
16969;SDS011;8601;48.718;8.992;2023-07-29T05:11:49;4.60;;;3.67;;
16969;SDS011;8601;48.718;8.992;2023-07-29T05:14:17;4.70;;;3.53;;
16969;SDS011;8601;48.718;8.992;2023-07-29T05:16:44;4.43;;;2.83;;
16969;SDS011;8601;48.718;8.992;2023-07-29T05:19:11;4.30;;;3.20;;
16969;SDS011;8601;48.718;8.992;2023-07-29T05:21:39;6.37;;;3.30;;
16969;SDS011;8601;48.718;8.992;2023-07-29T05:24:07;3.40;;;2.70;;
16969;SDS011;8601;48.718;8.992;2023-07-29T05:26:34;5.17;;;3.30;;
16969;SDS011;8601;48.718;8.992;2023-07-29T05:29:01;3.27;;;2.70;;
16969;SDS011;8601;48.718;8.992;2023-07-29T05:31:29;3.43;;;2.70;;
16969;SDS011;8601;48.718;8.992;2023-07-29T05:33:55;4.20;;;2.70;;
16969;SDS011;8601;48.718;8.992;2023-07-29T05:36:22;3.47;;;3.07;;
16969;SDS011;8601;48.718;8.992;2023-07-29T05:38:49;4.57;;;2.50;;
16969;SDS011;8601;48.718;8.992;2023-07-29T05:41:19;4.03;;;2.50;;
16969;SDS011;8601;48.718;8.992;2023-07-29T05:43:46;3.60;;;2.47;;
16969;SDS011;8601;48.718;8.992;2023-07-29T05:46:12;4.43;;;2.80;;
16969;SDS011;8601;48.718;8.992;2023-07-29T05:48:40;4.13;;;2.63;;
16969;SDS011;8601;48.718;8.992;2023-07-29T05:51:07;5.87;;;2.93;;
16969;SDS011;8601;48.718;8.992;2023-07-29T05:53:34;4.37;;;2.60;;
16969;SDS011;8601;48.718;8.992;2023-07-29T05:56:01;3.57;;;2.37;;
16969;SDS011;8601;48.718;8.992;2023-07-29T05:58:29;4.50;;;2.97;;
16969;SDS011;8601;48.718;8.992;2023-07-29T06:00:58;3.83;;;2.70;;
16969;SDS011;8601;48.718;8.992;2023-07-29T06:03:25;3.37;;;2.87;;
16969;SDS011;8601;48.718;8.992;2023-07-29T06:05:52;4.93;;;2.90;;
16969;SDS011;8601;48.718;8.992;2023-07-29T06:08:19;5.13;;;3.20;;
16969;SDS011;8601;48.718;8.992;2023-07-29T06:10:45;3.00;;;2.67;;
16969;SDS011;8601;48.718;8.992;2023-07-29T06:13:13;4.83;;;2.70;;
16969;SDS011;8601;48.718;8.992;2023-07-29T06:15:41;3.63;;;2.53;;
16969;SDS011;8601;48.718;8.992;2023-07-29T06:18:08;2.87;;;2.57;;
16969;SDS011;8601;48.718;8.992;2023-07-29T06:20:35;3.77;;;3.07;;
16969;SDS011;8601;48.718;8.992;2023-07-29T06:23:04;3.00;;;2.70;;
16969;SDS011;8601;48.718;8.992;2023-07-29T06:25:31;3.63;;;2.43;;
16969;SDS011;8601;48.718;8.992;2023-07-29T06:27:58;3.77;;;2.50;;
16969;SDS011;8601;48.718;8.992;2023-07-29T06:30:25;2.57;;;2.37;;
16969;SDS011;8601;48.718;8.992;2023-07-29T06:32:53;5.43;;;2.33;;
16969;SDS011;8601;48.718;8.992;2023-07-29T06:35:21;2.57;;;2.13;;
16969;SDS011;8601;48.718;8.992;2023-07-29T06:37:48;3.27;;;2.43;;
16969;SDS011;8601;48.718;8.992;2023-07-29T06:40:15;4.13;;;2.60;;
16969;SDS011;8601;48.718;8.992;2023-07-29T06:42:42;3.30;;;2.43;;
16969;SDS011;8601;48.718;8.992;2023-07-29T06:45:09;2.23;;;1.97;;
16969;SDS011;8601;48.718;8.992;2023-07-29T06:47:36;3.23;;;2.20;;
16969;SDS011;8601;48.718;8.992;2023-07-29T06:50:05;3.57;;;1.90;;
16969;SDS011;8601;48.718;8.992;2023-07-29T06:52:32;3.00;;;1.90;;
16969;SDS011;8601;48.718;8.992;2023-07-29T06:54:59;2.67;;;2.20;;
16969;SDS011;8601;48.718;8.992;2023-07-29T06:57:26;2.97;;;2.30;;
16969;SDS011;8601;48.718;8.992;2023-07-29T06:59:53;2.30;;;2.10;;
16969;SDS011;8601;48.718;8.992;2023-07-29T07:02:20;2.23;;;2.00;;
16969;SDS011;8601;48.718;8.992;2023-07-29T07:04:47;3.50;;;2.20;;
16969;SDS011;8601;48.718;8.992;2023-07-29T07:07:15;2.93;;;2.00;;
16969;SDS011;8601;48.718;8.992;2023-07-29T07:09:42;2.30;;;1.97;;
16969;SDS011;8601;48.718;8.992;2023-07-29T07:12:09;2.83;;;2.07;;
16969;SDS011;8601;48.718;8.992;2023-07-29T07:14:36;2.70;;;1.90;;
16969;SDS011;8601;48.718;8.992;2023-07-29T07:17:04;2.13;;;1.80;;
16969;SDS011;8601;48.718;8.992;2023-07-29T07:19:31;2.60;;;1.73;;
16969;SDS011;8601;48.718;8.992;2023-07-29T07:21:58;2.47;;;1.87;;
16969;SDS011;8601;48.718;8.992;2023-07-29T07:24:26;1.80;;;1.60;;
16969;SDS011;8601;48.718;8.992;2023-07-29T07:26:53;1.97;;;1.40;;
16969;SDS011;8601;48.718;8.992;2023-07-29T07:29:20;2.30;;;1.83;;
16969;SDS011;8601;48.718;8.992;2023-07-29T07:31:49;1.80;;;1.40;;
16969;SDS011;8601;48.718;8.992;2023-07-29T07:34:17;2.33;;;1.70;;
16969;SDS011;8601;48.718;8.992;2023-07-29T07:36:44;1.73;;;1.63;;
16969;SDS011;8601;48.718;8.992;2023-07-29T07:39:11;1.90;;;1.70;;
16969;SDS011;8601;48.718;8.992;2023-07-29T07:41:39;2.13;;;1.53;;
16969;SDS011;8601;48.718;8.992;2023-07-29T07:44:07;2.83;;;1.70;;
16969;SDS011;8601;48.718;8.992;2023-07-29T07:46:33;2.37;;;1.60;;
16969;SDS011;8601;48.718;8.992;2023-07-29T07:49:00;2.33;;;1.80;;
16969;SDS011;8601;48.718;8.992;2023-07-29T07:51:27;6.13;;;1.70;;
16969;SDS011;8601;48.718;8.992;2023-07-29T07:53:54;3.60;;;2.20;;
16969;SDS011;8601;48.718;8.992;2023-07-29T07:56:21;2.00;;;1.80;;
16969;SDS011;8601;48.718;8.992;2023-07-29T07:58:49;2.07;;;1.57;;
16969;SDS011;8601;48.718;8.992;2023-07-29T08:01:16;2.23;;;1.70;;
16969;SDS011;8601;48.718;8.992;2023-07-29T08:03:43;1.90;;;1.77;;
16969;SDS011;8601;48.718;8.992;2023-07-29T08:06:09;2.67;;;1.50;;
16969;SDS011;8601;48.718;8.992;2023-07-29T08:08:36;2.00;;;1.63;;
16969;SDS011;8601;48.718;8.992;2023-07-29T08:11:03;2.70;;;1.60;;
16969;SDS011;8601;48.718;8.992;2023-07-29T08:13:30;2.53;;;1.60;;
16969;SDS011;8601;48.718;8.992;2023-07-29T08:15:58;2.20;;;1.60;;
16969;SDS011;8601;48.718;8.992;2023-07-29T08:18:25;3.00;;;1.80;;
16969;SDS011;8601;48.718;8.992;2023-07-29T08:20:52;2.00;;;1.27;;
16969;SDS011;8601;48.718;8.992;2023-07-29T08:23:20;2.57;;;1.57;;
16969;SDS011;8601;48.718;8.992;2023-07-29T08:25:50;2.27;;;1.63;;
16969;SDS011;8601;48.718;8.992;2023-07-29T08:28:18;1.60;;;1.50;;
16969;SDS011;8601;48.718;8.992;2023-07-29T08:30:46;2.00;;;1.43;;
16969;SDS011;8601;48.718;8.992;2023-07-29T08:33:14;3.20;;;1.93;;
16969;SDS011;8601;48.718;8.992;2023-07-29T08:35:41;1.77;;;1.40;;
16969;SDS011;8601;48.718;8.992;2023-07-29T08:38:08;2.17;;;1.30;;
16969;SDS011;8601;48.718;8.992;2023-07-29T08:40:35;1.50;;;1.40;;
16969;SDS011;8601;48.718;8.992;2023-07-29T08:43:06;1.73;;;1.60;;
16969;SDS011;8601;48.718;8.992;2023-07-29T08:45:35;6.20;;;4.10;;
16969;SDS011;8601;48.718;8.992;2023-07-29T08:48:02;4.60;;;1.93;;
16969;SDS011;8601;48.718;8.992;2023-07-29T08:50:36;2.10;;;1.40;;
16969;SDS011;8601;48.718;8.992;2023-07-29T08:53:04;3.30;;;1.90;;
16969;SDS011;8601;48.718;8.992;2023-07-29T08:55:31;1.73;;;1.23;;
16969;SDS011;8601;48.718;8.992;2023-07-29T08:57:59;3.57;;;1.80;;
16969;SDS011;8601;48.718;8.992;2023-07-29T09:00:27;1.50;;;1.40;;
16969;SDS011;8601;48.718;8.992;2023-07-29T09:02:54;1.93;;;1.50;;
16969;SDS011;8601;48.718;8.992;2023-07-29T09:05:23;2.37;;;1.60;;
16969;SDS011;8601;48.718;8.992;2023-07-29T09:07:51;2.90;;;1.40;;
16969;SDS011;8601;48.718;8.992;2023-07-29T09:10:21;2.03;;;1.63;;
16969;SDS011;8601;48.718;8.992;2023-07-29T09:12:50;2.07;;;1.60;;
16969;SDS011;8601;48.718;8.992;2023-07-29T09:15:26;2.27;;;1.60;;
16969;SDS011;8601;48.718;8.992;2023-07-29T09:17:55;2.20;;;1.53;;
16969;SDS011;8601;48.718;8.992;2023-07-29T09:20:25;2.50;;;1.63;;
16969;SDS011;8601;48.718;8.992;2023-07-29T09:22:55;2.57;;;1.47;;
16969;SDS011;8601;48.718;8.992;2023-07-29T09:25:25;1.57;;;1.33;;
16969;SDS011;8601;48.718;8.992;2023-07-29T09:27:52;3.40;;;1.80;;
16969;SDS011;8601;48.718;8.992;2023-07-29T09:30:24;1.93;;;1.30;;
16969;SDS011;8601;48.718;8.992;2023-07-29T09:32:52;1.33;;;1.17;;
16969;SDS011;8601;48.718;8.992;2023-07-29T09:35:23;1.60;;;1.50;;
16969;SDS011;8601;48.718;8.992;2023-07-29T09:37:51;1.50;;;1.40;;
16969;SDS011;8601;48.718;8.992;2023-07-29T09:40:19;1.47;;;1.37;;
16969;SDS011;8601;48.718;8.992;2023-07-29T09:42:49;2.10;;;1.40;;
16969;SDS011;8601;48.718;8.992;2023-07-29T09:45:20;1.40;;;1.30;;
16969;SDS011;8601;48.718;8.992;2023-07-29T09:47:48;1.60;;;1.50;;
16969;SDS011;8601;48.718;8.992;2023-07-29T09:50:15;1.97;;;1.47;;
16969;SDS011;8601;48.718;8.992;2023-07-29T09:52:43;2.23;;;1.73;;
16969;SDS011;8601;48.718;8.992;2023-07-29T09:55:11;2.73;;;1.67;;
16969;SDS011;8601;48.718;8.992;2023-07-29T09:57:40;1.50;;;1.40;;
16969;SDS011;8601;48.718;8.992;2023-07-29T10:00:10;2.07;;;1.60;;
16969;SDS011;8601;48.718;8.992;2023-07-29T10:02:38;1.90;;;1.70;;
16969;SDS011;8601;48.718;8.992;2023-07-29T10:05:06;3.63;;;1.63;;
16969;SDS011;8601;48.718;8.992;2023-07-29T10:07:35;2.27;;;1.60;;
16969;SDS011;8601;48.718;8.992;2023-07-29T10:10:03;1.67;;;1.50;;
16969;SDS011;8601;48.718;8.992;2023-07-29T10:12:32;1.97;;;1.70;;
16969;SDS011;8601;48.718;8.992;2023-07-29T10:15:02;1.53;;;1.43;;
16969;SDS011;8601;48.718;8.992;2023-07-29T10:17:29;2.53;;;1.60;;
16969;SDS011;8601;48.718;8.992;2023-07-29T10:19:56;1.73;;;1.60;;
16969;SDS011;8601;48.718;8.992;2023-07-29T10:22:24;2.83;;;1.60;;
16969;SDS011;8601;48.718;8.992;2023-07-29T10:24:55;2.20;;;1.60;;
16969;SDS011;8601;48.718;8.992;2023-07-29T10:27:35;1.77;;;1.60;;
16969;SDS011;8601;48.718;8.992;2023-07-29T10:30:10;3.80;;;1.70;;
16969;SDS011;8601;48.718;8.992;2023-07-29T10:32:38;1.57;;;1.40;;
16969;SDS011;8601;48.718;8.992;2023-07-29T10:35:08;1.97;;;1.40;;
16969;SDS011;8601;48.718;8.992;2023-07-29T10:37:35;2.07;;;1.47;;
16969;SDS011;8601;48.718;8.992;2023-07-29T10:40:05;2.07;;;1.70;;
16969;SDS011;8601;48.718;8.992;2023-07-29T10:42:33;3.10;;;1.70;;
16969;SDS011;8601;48.718;8.992;2023-07-29T10:45:02;1.70;;;1.33;;
16969;SDS011;8601;48.718;8.992;2023-07-29T10:47:46;2.90;;;1.60;;
16969;SDS011;8601;48.718;8.992;2023-07-29T10:50:16;1.50;;;1.40;;
16969;SDS011;8601;48.718;8.992;2023-07-29T10:52:48;1.50;;;1.40;;
16969;SDS011;8601;48.718;8.992;2023-07-29T10:55:26;1.90;;;1.70;;
16969;SDS011;8601;48.718;8.992;2023-07-29T10:58:05;1.67;;;1.30;;
16969;SDS011;8601;48.718;8.992;2023-07-29T11:00:36;1.87;;;1.43;;
16969;SDS011;8601;48.718;8.992;2023-07-29T11:03:03;3.20;;;1.33;;
16969;SDS011;8601;48.718;8.992;2023-07-29T11:05:41;1.83;;;1.37;;
16969;SDS011;8601;48.718;8.992;2023-07-29T11:08:19;1.60;;;1.50;;
16969;SDS011;8601;48.718;8.992;2023-07-29T11:10:57;1.87;;;1.40;;
16969;SDS011;8601;48.718;8.992;2023-07-29T11:13:26;2.50;;;1.37;;
16969;SDS011;8601;48.718;8.992;2023-07-29T11:15:55;2.17;;;1.50;;
16969;SDS011;8601;48.718;8.992;2023-07-29T11:18:25;1.60;;;1.50;;
16969;SDS011;8601;48.718;8.992;2023-07-29T11:20:54;1.37;;;1.27;;
16969;SDS011;8601;48.718;8.992;2023-07-29T11:23:26;1.77;;;1.27;;
16969;SDS011;8601;48.718;8.992;2023-07-29T11:25:57;2.10;;;1.33;;
16969;SDS011;8601;48.718;8.992;2023-07-29T11:28:25;1.50;;;1.40;;
16969;SDS011;8601;48.718;8.992;2023-07-29T11:30:54;1.50;;;1.40;;
16969;SDS011;8601;48.718;8.992;2023-07-29T11:33:22;1.33;;;1.23;;
16969;SDS011;8601;48.718;8.992;2023-07-29T11:35:50;2.17;;;1.57;;
16969;SDS011;8601;48.718;8.992;2023-07-29T11:38:17;1.73;;;1.60;;
16969;SDS011;8601;48.718;8.992;2023-07-29T11:40:53;2.53;;;1.30;;
16969;SDS011;8601;48.718;8.992;2023-07-29T11:43:21;1.67;;;1.57;;
16969;SDS011;8601;48.718;8.992;2023-07-29T11:45:47;1.63;;;1.50;;
16969;SDS011;8601;48.718;8.992;2023-07-29T11:48:16;2.30;;;1.50;;
16969;SDS011;8601;48.718;8.992;2023-07-29T11:50:43;2.63;;;1.63;;
16969;SDS011;8601;48.718;8.992;2023-07-29T11:53:11;2.53;;;1.50;;
16969;SDS011;8601;48.718;8.992;2023-07-29T11:55:38;3.07;;;1.63;;
16969;SDS011;8601;48.718;8.992;2023-07-29T11:58:05;2.63;;;1.80;;
16969;SDS011;8601;48.718;8.992;2023-07-29T12:00:32;1.97;;;1.40;;
16969;SDS011;8601;48.718;8.992;2023-07-29T12:03:00;2.00;;;1.70;;
16969;SDS011;8601;48.718;8.992;2023-07-29T12:05:28;2.40;;;1.67;;
16969;SDS011;8601;48.718;8.992;2023-07-29T12:07:56;1.67;;;1.57;;
16969;SDS011;8601;48.718;8.992;2023-07-29T12:10:24;3.83;;;1.60;;
16969;SDS011;8601;48.718;8.992;2023-07-29T12:12:51;1.83;;;1.70;;
16969;SDS011;8601;48.718;8.992;2023-07-29T12:15:25;1.90;;;1.67;;
16969;SDS011;8601;48.718;8.992;2023-07-29T12:17:53;2.27;;;1.70;;
16969;SDS011;8601;48.718;8.992;2023-07-29T12:20:22;2.00;;;1.63;;
16969;SDS011;8601;48.718;8.992;2023-07-29T12:22:55;1.70;;;1.60;;
16969;SDS011;8601;48.718;8.992;2023-07-29T12:25:22;2.33;;;1.67;;
16969;SDS011;8601;48.718;8.992;2023-07-29T12:27:49;1.63;;;1.53;;
16969;SDS011;8601;48.718;8.992;2023-07-29T12:30:19;2.33;;;1.47;;
16969;SDS011;8601;48.718;8.992;2023-07-29T12:32:47;1.77;;;1.50;;
16969;SDS011;8601;48.718;8.992;2023-07-29T12:35:14;2.30;;;1.90;;
16969;SDS011;8601;48.718;8.992;2023-07-29T12:37:42;2.20;;;1.80;;
16969;SDS011;8601;48.718;8.992;2023-07-29T12:42:53;1.90;;;1.73;;
16969;SDS011;8601;48.718;8.992;2023-07-29T12:45:20;2.87;;;1.60;;
16969;SDS011;8601;48.718;8.992;2023-07-29T12:47:48;1.70;;;1.60;;
16969;SDS011;8601;48.718;8.992;2023-07-29T12:50:15;2.47;;;1.60;;
16969;SDS011;8601;48.718;8.992;2023-07-29T12:52:42;2.77;;;1.80;;
16969;SDS011;8601;48.718;8.992;2023-07-29T12:55:09;1.50;;;1.40;;
16969;SDS011;8601;48.718;8.992;2023-07-29T12:57:41;2.23;;;1.83;;
16969;SDS011;8601;48.718;8.992;2023-07-29T13:00:09;2.53;;;1.70;;
16969;SDS011;8601;48.718;8.992;2023-07-29T13:02:37;2.27;;;1.73;;
16969;SDS011;8601;48.718;8.992;2023-07-29T13:05:04;1.60;;;1.50;;
16969;SDS011;8601;48.718;8.992;2023-07-29T13:07:33;1.80;;;1.53;;
16969;SDS011;8601;48.718;8.992;2023-07-29T13:10:00;1.33;;;1.23;;
16969;SDS011;8601;48.718;8.992;2023-07-29T13:12:28;1.97;;;1.50;;
16969;SDS011;8601;48.718;8.992;2023-07-29T13:14:56;1.73;;;1.60;;
16969;SDS011;8601;48.718;8.992;2023-07-29T13:17:23;4.40;;;1.50;;
16969;SDS011;8601;48.718;8.992;2023-07-29T13:19:51;2.53;;;1.40;;
16969;SDS011;8601;48.718;8.992;2023-07-29T13:22:19;1.40;;;1.30;;
16969;SDS011;8601;48.718;8.992;2023-07-29T13:24:46;1.50;;;1.40;;
16969;SDS011;8601;48.718;8.992;2023-07-29T13:27:13;1.43;;;1.33;;
16969;SDS011;8601;48.718;8.992;2023-07-29T13:29:40;3.00;;;1.63;;
16969;SDS011;8601;48.718;8.992;2023-07-29T13:32:09;1.63;;;1.50;;
16969;SDS011;8601;48.718;8.992;2023-07-29T13:34:36;1.83;;;1.40;;
16969;SDS011;8601;48.718;8.992;2023-07-29T13:37:05;1.97;;;1.70;;
16969;SDS011;8601;48.718;8.992;2023-07-29T13:39:32;2.00;;;1.60;;
16969;SDS011;8601;48.718;8.992;2023-07-29T13:41:59;1.90;;;1.53;;
16969;SDS011;8601;48.718;8.992;2023-07-29T13:44:26;1.83;;;1.60;;
16969;SDS011;8601;48.718;8.992;2023-07-29T13:46:53;1.77;;;1.67;;
16969;SDS011;8601;48.718;8.992;2023-07-29T13:49:22;2.60;;;1.73;;
16969;SDS011;8601;48.718;8.992;2023-07-29T13:51:49;2.10;;;1.40;;
16969;SDS011;8601;48.718;8.992;2023-07-29T13:54:16;1.60;;;1.50;;
16969;SDS011;8601;48.718;8.992;2023-07-29T13:56:43;2.53;;;1.80;;
16969;SDS011;8601;48.718;8.992;2023-07-29T13:59:10;2.43;;;1.60;;
16969;SDS011;8601;48.718;8.992;2023-07-29T14:01:36;2.03;;;1.47;;
16969;SDS011;8601;48.718;8.992;2023-07-29T14:04:03;1.93;;;1.57;;
16969;SDS011;8601;48.718;8.992;2023-07-29T14:06:32;1.60;;;1.50;;
16969;SDS011;8601;48.718;8.992;2023-07-29T14:08:58;1.70;;;1.30;;
16969;SDS011;8601;48.718;8.992;2023-07-29T14:11:26;1.47;;;1.33;;
16969;SDS011;8601;48.718;8.992;2023-07-29T14:13:54;2.60;;;1.60;;
16969;SDS011;8601;48.718;8.992;2023-07-29T14:16:21;1.70;;;1.60;;
16969;SDS011;8601;48.718;8.992;2023-07-29T14:18:47;1.50;;;1.40;;
16969;SDS011;8601;48.718;8.992;2023-07-29T14:21:14;2.20;;;1.50;;
16969;SDS011;8601;48.718;8.992;2023-07-29T14:23:42;1.93;;;1.70;;
16969;SDS011;8601;48.718;8.992;2023-07-29T14:26:09;1.50;;;1.40;;
16969;SDS011;8601;48.718;8.992;2023-07-29T14:28:36;2.03;;;1.90;;
16969;SDS011;8601;48.718;8.992;2023-07-29T14:31:03;3.50;;;2.07;;
16969;SDS011;8601;48.718;8.992;2023-07-29T14:33:30;4.13;;;2.00;;
16969;SDS011;8601;48.718;8.992;2023-07-29T14:35:57;1.63;;;1.53;;
16969;SDS011;8601;48.718;8.992;2023-07-29T14:38:24;1.97;;;1.77;;
16969;SDS011;8601;48.718;8.992;2023-07-29T14:40:52;2.20;;;2.00;;
16969;SDS011;8601;48.718;8.992;2023-07-29T14:43:21;3.30;;;2.17;;
16969;SDS011;8601;48.718;8.992;2023-07-29T14:45:48;1.70;;;1.60;;
16969;SDS011;8601;48.718;8.992;2023-07-29T14:48:15;1.60;;;1.50;;
16969;SDS011;8601;48.718;8.992;2023-07-29T14:50:42;2.60;;;1.70;;
16969;SDS011;8601;48.718;8.992;2023-07-29T14:53:09;2.20;;;1.70;;
16969;SDS011;8601;48.718;8.992;2023-07-29T14:55:36;2.03;;;1.63;;
16969;SDS011;8601;48.718;8.992;2023-07-29T14:58:05;2.13;;;1.80;;
16969;SDS011;8601;48.718;8.992;2023-07-29T15:00:32;1.70;;;1.60;;
16969;SDS011;8601;48.718;8.992;2023-07-29T15:02:59;1.87;;;1.77;;
16969;SDS011;8601;48.718;8.992;2023-07-29T15:05:26;1.53;;;1.43;;
16969;SDS011;8601;48.718;8.992;2023-07-29T15:07:53;2.20;;;2.00;;